createdAt,value
2022-11-05T00:02:17.871Z,100118.55
2022-11-05T00:05:05.049Z,100117.91
2022-11-05T00:07:56.647Z,100118.09
2022-11-05T00:10:27.774Z,100111.11
2022-11-05T00:13:16.313Z,100110.01
2022-11-05T00:16:04.287Z,100106.48
2022-11-05T00:18:32.855Z,100102.15
2022-11-05T00:21:01.288Z,100100.69
2022-11-05T00:23:48.052Z,100102.09
2022-11-05T00:26:16.613Z,100096.89
2022-11-05T00:28:45.262Z,100098.14
2022-11-05T00:31:14.912Z,100103.46
2022-11-05T00:33:43.992Z,100102.27
2022-11-05T00:36:12.735Z,100116.28
2022-11-05T00:38:41.430Z,100114.27
2022-11-05T00:41:09.918Z,100098.05
2022-11-05T00:43:56.913Z,100091.75
2022-11-05T00:46:25.547Z,100100.00
2022-11-05T00:49:12.439Z,100104.64
2022-11-05T00:51:41.161Z,100112.10
2022-11-05T00:54:09.654Z,100113.65
2022-11-05T00:56:38.455Z,100112.48
2022-11-05T00:59:07.343Z,100112.69
2022-11-05T01:01:36.254Z,100116.73
2022-11-05T01:04:05.558Z,100111.14
2022-11-05T01:06:34.095Z,100112.17
2022-11-05T01:09:02.674Z,100103.40
2022-11-05T01:11:34.650Z,100099.17
2022-11-05T01:14:13.370Z,100101.08
2022-11-05T01:16:42.347Z,100104.78
2022-11-05T01:19:11.540Z,100102.82
2022-11-05T01:21:40.345Z,100096.91
2022-11-05T01:24:10.973Z,100098.93
2022-11-05T01:26:42.199Z,100100.41
2022-11-05T01:29:11.524Z,100097.79
2022-11-05T01:31:40.247Z,100096.81
2022-11-05T01:34:09.002Z,100099.13
2022-11-05T01:36:44.702Z,100103.98
2022-11-05T01:39:13.842Z,100109.09
2022-11-05T01:41:42.528Z,100110.34
2022-11-05T01:44:43.563Z,100111.48
2022-11-05T01:47:27.768Z,100111.73
2022-11-05T01:50:04.287Z,100114.30
2022-11-05T01:52:34.674Z,100114.52
2022-11-05T01:55:09.754Z,100112.50
2022-11-05T01:57:38.513Z,100107.39
2022-11-05T02:00:09.992Z,100107.05
2022-11-05T02:02:45.236Z,100107.63
2022-11-05T02:05:14.844Z,100109.34
2022-11-05T02:07:45.713Z,100108.23
2022-11-05T02:10:17.362Z,100109.61
2022-11-05T02:12:47.577Z,100113.40
2022-11-05T02:15:22.773Z,100112.80
2022-11-05T02:18:05.735Z,100111.23
2022-11-05T02:20:41.537Z,100114.06
2022-11-05T02:23:54.319Z,100116.94
2022-11-05T02:27:01.244Z,100116.13
2022-11-05T02:30:19.394Z,100112.16
2022-11-05T02:33:10.131Z,100112.91
2022-11-05T02:35:54.823Z,100114.73
2022-11-05T02:38:38.937Z,100116.42
2022-11-05T02:41:14.699Z,100117.73
2022-11-05T02:43:53.647Z,100117.95
2022-11-05T02:46:33.746Z,100121.47
2022-11-05T02:49:14.340Z,100116.71
2022-11-05T02:51:51.262Z,100110.58
2022-11-05T02:54:25.414Z,100111.48
2022-11-05T02:56:58.902Z,100113.77
2022-11-05T02:59:27.450Z,100107.13
2022-11-05T03:01:58.035Z,100105.55
2022-11-05T03:04:30.437Z,100109.67
2022-11-05T03:07:19.118Z,100105.66
2022-11-05T03:10:05.441Z,100108.56
2022-11-05T03:12:46.607Z,100105.03
2022-11-05T03:15:31.613Z,100106.34
2022-11-05T03:18:10.382Z,100107.52
2022-11-05T03:20:47.041Z,100105.52
2022-11-05T03:23:25.738Z,100106.21
2022-11-05T03:26:01.743Z,100106.34
2022-11-05T03:28:35.583Z,100114.09
2022-11-05T03:31:06.287Z,100124.17
2022-11-05T03:33:39.013Z,100132.30
2022-11-05T03:36:15.934Z,100130.39
2022-11-05T03:38:51.503Z,100129.88
2022-11-05T03:41:23.448Z,100133.08
2022-11-05T03:43:57.913Z,100130.27
2022-11-05T03:46:31.533Z,100136.88
2022-11-05T03:49:04.342Z,100144.04
2022-11-05T03:51:39.273Z,100151.80
2022-11-05T03:54:08.966Z,100154.31
2022-11-05T03:56:44.558Z,100161.24
2022-11-05T03:59:13.668Z,100170.06
2022-11-05T04:01:42.560Z,100168.90
2022-11-05T04:04:11.249Z,100175.79
2022-11-05T04:06:58.535Z,100189.71
2022-11-05T04:09:45.422Z,100198.00
2022-11-05T04:12:32.014Z,100200.91
2022-11-05T04:15:00.912Z,100200.02
2022-11-05T04:17:29.686Z,100198.95
2022-11-05T04:20:16.359Z,100195.70
2022-11-05T04:23:03.747Z,100196.34
2022-11-05T04:25:32.601Z,100195.04
2022-11-05T04:28:01.123Z,100196.48
2022-11-05T04:30:29.906Z,100205.58
2022-11-05T04:33:06.870Z,100213.45
2022-11-05T04:35:37.549Z,100217.91
2022-11-05T04:38:08.452Z,100223.91
2022-11-05T04:40:37.530Z,100227.84
2022-11-05T04:43:12.018Z,100231.13
2022-11-05T04:45:43.804Z,100233.80
2022-11-05T04:48:12.590Z,100233.68
2022-11-05T04:50:41.291Z,100233.35
2022-11-05T04:53:10.140Z,100240.44
2022-11-05T04:55:39.234Z,100243.31
2022-11-05T04:58:08.754Z,100239.85
2022-11-05T05:00:37.524Z,100239.55
2022-11-05T05:03:06.430Z,100239.61
2022-11-05T05:05:35.014Z,100235.80
2022-11-05T05:08:04.817Z,100237.30
2022-11-05T05:10:33.269Z,100242.86
2022-11-05T05:13:04.326Z,100246.33
2022-11-05T05:15:32.924Z,100244.21
2022-11-05T05:18:01.516Z,100245.73
2022-11-05T05:20:48.532Z,100252.59
2022-11-05T05:23:17.591Z,100264.21
2022-11-05T05:25:46.042Z,100272.45
2022-11-05T05:28:14.686Z,100283.00
2022-11-05T05:30:43.381Z,100287.73
2022-11-05T05:33:14.337Z,100293.67
2022-11-05T05:35:43.202Z,100303.65
2022-11-05T05:38:11.831Z,100304.00
2022-11-05T05:40:40.393Z,100303.52
2022-11-05T05:43:11.594Z,100308.31
2022-11-05T05:45:40.361Z,100307.80
2022-11-05T05:48:09.110Z,100306.77
2022-11-05T05:50:37.804Z,100300.28
2022-11-05T05:53:09.241Z,100314.77
2022-11-05T05:55:38.206Z,100312.04
2022-11-05T05:58:06.996Z,100319.41
2022-11-05T06:00:35.922Z,100323.02
2022-11-05T06:03:05.686Z,100326.48
2022-11-05T06:05:36.635Z,100326.40
2022-11-05T06:08:06.038Z,100328.65
2022-11-05T06:10:34.677Z,100334.93
2022-11-05T06:13:03.832Z,100333.96
2022-11-05T06:15:35.923Z,100341.70
2022-11-05T06:18:05.107Z,100345.29
2022-11-05T06:20:33.500Z,100351.08
2022-11-05T06:23:02.244Z,100357.02
2022-11-05T06:25:30.897Z,100359.57
2022-11-05T06:28:00.039Z,100358.66
2022-11-05T06:30:28.426Z,100365.66
2022-11-05T06:33:01.244Z,100370.88
2022-11-05T06:35:30.167Z,100374.60
2022-11-05T06:38:01.166Z,100377.54
2022-11-05T06:40:29.905Z,100382.34
2022-11-05T06:42:58.393Z,100383.66
2022-11-05T06:45:26.966Z,100392.73
2022-11-05T06:48:02.381Z,100399.75
2022-11-05T06:50:31.110Z,100405.59
2022-11-05T06:53:01.410Z,100405.05
2022-11-05T06:55:30.893Z,100406.16
2022-11-05T06:57:59.840Z,100413.09
2022-11-05T07:00:31.239Z,100421.23
2022-11-05T07:03:05.612Z,100425.97
2022-11-05T07:05:37.217Z,100422.38
2022-11-05T07:08:06.228Z,100418.06
2022-11-05T07:10:34.839Z,100426.91
2022-11-05T07:13:07.814Z,100435.27
2022-11-05T07:15:37.609Z,100443.41
2022-11-05T07:18:06.985Z,100442.71
2022-11-05T07:20:35.716Z,100450.52
2022-11-05T07:23:06.866Z,100459.52
2022-11-05T07:25:36.792Z,100465.60
2022-11-05T07:28:06.402Z,100466.89
2022-11-05T07:30:35.942Z,100467.75
2022-11-05T07:33:04.747Z,100475.60
2022-11-05T07:35:33.507Z,100484.97
2022-11-05T07:38:02.300Z,100487.91
2022-11-05T07:40:31.071Z,100491.33
2022-11-05T07:43:01.050Z,100497.06
2022-11-05T07:45:31.768Z,100494.34
2022-11-05T07:48:01.456Z,100497.93
2022-11-05T07:50:32.653Z,100504.23
2022-11-05T07:55:45.523Z,100511.37
2022-11-05T07:58:14.219Z,100516.92
2022-11-05T08:00:43.152Z,100517.61
2022-11-05T08:03:17.611Z,100515.14
2022-11-05T08:05:47.660Z,100518.87
2022-11-05T08:08:20.231Z,100517.30
2022-11-05T08:10:48.813Z,100517.77
2022-11-05T08:13:17.977Z,100518.86
2022-11-05T08:15:46.701Z,100521.48
2022-11-05T08:18:17.028Z,100519.42
2022-11-05T08:20:46.894Z,100518.47
2022-11-05T08:23:15.753Z,100524.01
2022-11-05T08:25:47.593Z,100528.67
2022-11-05T08:28:16.934Z,100538.80
2022-11-05T08:30:49.855Z,100548.82
2022-11-05T08:33:20.186Z,100550.42
2022-11-05T08:35:49.167Z,100563.59
2022-11-05T08:38:19.510Z,100570.55
2022-11-05T08:40:55.907Z,100569.11
2022-11-05T08:43:24.741Z,100564.27
2022-11-05T08:45:54.336Z,100566.79
2022-11-05T08:48:22.922Z,100572.48
2022-11-05T08:50:51.747Z,100581.95
2022-11-05T08:53:20.678Z,100586.34
2022-11-05T08:55:50.946Z,100587.43
2022-11-05T08:58:20.021Z,100588.90
2022-11-05T09:00:49.694Z,100590.48
2022-11-05T09:03:18.756Z,100598.14
2022-11-05T09:05:47.398Z,100601.14
2022-11-05T09:08:17.683Z,100592.89
2022-11-05T09:10:47.622Z,100605.73
2022-11-05T09:13:20.015Z,100608.30
2022-11-05T09:15:49.722Z,100602.23
2022-11-05T09:18:19.672Z,100610.73
2022-11-05T09:20:48.684Z,100614.70
2022-11-05T09:23:17.937Z,100619.20
2022-11-05T09:25:47.453Z,100619.48
2022-11-05T09:28:21.760Z,100622.15
2022-11-05T09:30:53.222Z,100620.63
2022-11-05T09:33:24.006Z,100631.34
2022-11-05T09:35:53.611Z,100635.65
2022-11-05T09:38:22.167Z,100637.56
2022-11-05T09:40:59.401Z,100643.56
2022-11-05T09:43:34.286Z,100652.25
2022-11-05T09:46:11.636Z,100654.27
2022-11-05T09:48:42.004Z,100665.09
2022-11-05T09:51:17.988Z,100668.92
2022-11-05T09:53:50.115Z,100677.29
2022-11-05T09:56:24.772Z,100677.19
2022-11-05T09:58:58.851Z,100679.16
2022-11-05T10:01:31.620Z,100683.77
2022-11-05T10:04:05.986Z,100690.97
2022-11-05T10:06:36.725Z,100693.80
2022-11-05T10:09:12.768Z,100703.84
2022-11-05T10:11:45.938Z,100708.88
2022-11-05T10:14:19.776Z,100717.46
2022-11-05T10:16:56.247Z,100714.09
2022-11-05T10:19:28.206Z,100710.44
2022-11-05T10:22:08.832Z,100717.21
2022-11-05T10:24:40.623Z,100723.67
2022-11-05T10:27:16.616Z,100732.98
2022-11-05T10:29:46.688Z,100738.16
2022-11-05T10:32:23.322Z,100747.69
2022-11-05T10:34:54.086Z,100756.88
2022-11-05T10:37:24.380Z,100756.20
2022-11-05T10:39:53.354Z,100753.73
2022-11-05T10:42:47.225Z,100757.98
2022-11-05T10:45:30.361Z,100765.16
2022-11-05T10:48:15.949Z,100769.98
2022-11-05T10:50:45.470Z,100765.17
2022-11-05T10:53:16.507Z,100769.86
2022-11-05T10:55:47.516Z,100769.04
2022-11-05T10:58:21.273Z,100773.02
2022-11-05T11:01:04.591Z,100776.91
2022-11-05T11:03:40.032Z,100773.77
2022-11-05T11:06:19.402Z,100775.71
2022-11-05T11:08:49.094Z,100778.88
2022-11-05T11:11:29.445Z,100774.98
2022-11-05T11:14:02.592Z,100778.86
2022-11-05T11:16:37.367Z,100787.23
2022-11-05T11:19:26.579Z,100792.23
2022-11-05T11:22:19.382Z,100798.20
2022-11-05T11:24:50.392Z,100809.25
2022-11-05T11:27:24.506Z,100818.05
2022-11-05T11:29:58.451Z,100820.02
2022-11-05T11:32:33.067Z,100824.66
2022-11-05T11:35:02.407Z,100825.54
2022-11-05T11:37:36.673Z,100825.47
2022-11-05T11:40:15.826Z,100833.26
2022-11-05T11:42:48.932Z,100834.86
2022-11-05T11:45:20.738Z,100834.17
2022-11-05T11:47:50.381Z,100836.27
2022-11-05T11:50:38.393Z,100839.45
2022-11-05T11:53:28.410Z,100837.27
2022-11-05T11:56:06.040Z,100835.06
2022-11-05T11:58:40.965Z,100833.38
2022-11-05T12:01:48.297Z,100835.01
2022-11-05T12:04:35.751Z,100837.34
2022-11-05T12:07:17.955Z,100832.13
2022-11-05T12:10:00.551Z,100825.99
2022-11-05T12:12:40.380Z,100825.96
2022-11-05T12:15:27.580Z,100825.39
2022-11-05T12:18:01.557Z,100833.56
2022-11-05T12:20:48.413Z,100836.84
2022-11-05T12:23:33.733Z,100837.24
2022-11-05T12:26:13.197Z,100837.88
2022-11-05T12:29:18.885Z,100837.15
2022-11-05T12:31:59.231Z,100837.37
2022-11-05T12:34:42.826Z,100840.36
2022-11-05T12:37:25.459Z,100844.42
2022-11-05T12:40:10.611Z,100851.22
2022-11-05T12:42:53.030Z,100852.41
2022-11-05T12:45:43.603Z,100854.06
2022-11-05T12:48:30.258Z,100861.69
2022-11-05T12:51:13.843Z,100865.16
2022-11-05T12:53:54.436Z,100877.80
2022-11-05T12:56:32.231Z,100880.05
2022-11-05T12:59:12.778Z,100876.11
2022-11-05T13:01:46.516Z,100881.96
2022-11-05T13:04:31.071Z,100884.71
2022-11-05T13:07:06.518Z,100889.05
2022-11-05T13:09:41.408Z,100887.22
2022-11-05T13:12:13.298Z,100884.88
2022-11-05T13:14:45.395Z,100880.88
2022-11-05T13:17:17.513Z,100882.83
2022-11-05T13:19:52.626Z,100884.41
2022-11-05T13:22:36.345Z,100884.02
2022-11-05T13:25:13.826Z,100888.08
2022-11-05T13:27:53.253Z,100899.70
2022-11-05T13:30:24.542Z,100902.61
2022-11-05T13:33:05.650Z,100911.58
2022-11-05T13:35:43.180Z,100915.79
2022-11-05T13:38:40.847Z,100918.64
2022-11-05T13:41:24.421Z,100924.02
2022-11-05T13:44:11.917Z,100927.36
2022-11-05T13:47:05.836Z,100932.79
2022-11-05T13:49:57.953Z,100932.63
2022-11-05T13:52:55.180Z,100937.67
2022-11-05T13:55:48.836Z,100936.88
2022-11-05T13:58:59.171Z,100936.05
2022-11-05T14:01:42.808Z,100942.96
2022-11-05T14:04:22.809Z,100946.61
2022-11-05T14:06:52.336Z,100952.20
2022-11-05T14:09:26.790Z,100948.85
2022-11-05T14:11:57.949Z,100947.67
2022-11-05T14:14:35.583Z,100958.05
2022-11-05T14:17:28.323Z,100956.63
2022-11-05T14:20:25.201Z,100963.88
2022-11-05T14:22:53.790Z,100963.05
2022-11-05T14:26:00.848Z,100966.45
2022-11-05T14:28:43.880Z,100963.98
2022-11-05T14:31:54.563Z,100961.23
2022-11-05T14:34:40.860Z,100971.77
2022-11-05T14:37:23.445Z,100975.41
2022-11-05T14:39:54.158Z,100981.96
2022-11-05T14:42:26.417Z,100982.02
2022-11-05T14:45:03.752Z,100983.16
2022-11-05T14:47:35.709Z,100990.25
2022-11-05T14:50:17.679Z,100987.01
2022-11-05T14:52:59.206Z,100984.65
2022-11-05T14:55:36.972Z,100987.21
2022-11-05T14:58:31.408Z,100991.30
2022-11-05T15:01:02.239Z,101002.98
2022-11-05T15:04:03.035Z,101010.95
2022-11-05T15:06:37.486Z,101012.77
2022-11-05T15:09:26.530Z,101013.07
2022-11-05T15:12:11.116Z,101014.00
2022-11-05T15:14:49.087Z,101020.98
2022-11-05T15:17:29.222Z,101018.27
2022-11-05T15:20:08.067Z,101018.59
2022-11-05T15:22:40.462Z,101018.59
2022-11-05T15:25:18.394Z,101025.08
2022-11-05T15:28:04.857Z,101023.98
2022-11-05T15:30:33.809Z,101020.81
2022-11-05T15:33:19.977Z,101033.13
2022-11-05T15:35:49.268Z,101035.48
2022-11-05T15:38:30.064Z,101045.35
2022-11-05T15:41:05.428Z,101047.08
2022-11-05T15:43:47.557Z,101052.37
2022-11-05T15:46:19.481Z,101054.50
2022-11-05T15:48:52.169Z,101053.48
2022-11-05T15:51:24.039Z,101058.64
2022-11-05T15:57:27.413Z,101064.52
2022-11-05T16:01:06.492Z,101067.86
2022-11-05T16:03:51.380Z,101075.14
2022-11-05T16:06:24.832Z,101080.52
2022-11-05T16:09:16.452Z,101087.89
2022-11-05T16:12:22.689Z,101087.71
2022-11-05T16:15:03.158Z,101091.14
2022-11-05T16:17:45.275Z,101090.63
2022-11-05T16:20:32.211Z,101095.80
2022-11-05T16:23:03.678Z,101096.30
2022-11-05T16:25:42.939Z,101102.67
2022-11-05T16:28:22.484Z,101102.48
2022-11-05T16:31:01.624Z,101099.63
2022-11-05T16:33:40.262Z,101103.85
2022-11-05T16:36:10.158Z,101108.22
2022-11-05T16:38:38.925Z,101114.27
2022-11-05T16:41:12.520Z,101120.36
2022-11-05T16:44:02.882Z,101124.31
2022-11-05T16:46:36.563Z,101125.98
2022-11-05T16:49:05.457Z,101125.84
2022-11-05T16:51:35.010Z,101129.63
2022-11-05T16:54:09.084Z,101132.31
2022-11-05T16:56:44.200Z,101131.63
2022-11-05T16:59:27.769Z,101136.23
2022-11-05T17:01:57.545Z,101134.88
2022-11-05T17:04:26.451Z,101133.98
2022-11-05T17:06:56.413Z,101132.48
2022-11-05T17:09:26.045Z,101146.55
2022-11-05T17:11:54.630Z,101149.27
2022-11-05T17:14:23.180Z,101151.96
2022-11-05T17:16:52.085Z,101155.70
2022-11-05T17:19:20.657Z,101154.39
2022-11-05T17:21:49.768Z,101154.23
2022-11-05T17:24:18.306Z,101155.56
2022-11-05T17:26:47.380Z,101158.38
2022-11-05T17:29:16.101Z,101160.62
2022-11-05T17:31:44.562Z,101164.83
2022-11-05T17:34:12.977Z,101166.77
2022-11-05T17:36:43.881Z,101167.89
2022-11-05T17:39:31.214Z,101169.48
2022-11-05T17:42:00.714Z,101170.46
2022-11-05T17:44:29.702Z,101175.59
2022-11-05T17:46:58.407Z,101175.39
2022-11-05T17:49:33.121Z,101179.21
2022-11-05T17:52:04.555Z,101179.22
2022-11-05T17:54:33.133Z,101185.52
2022-11-05T17:57:03.228Z,101188.43
2022-11-05T17:59:32.290Z,101193.07
2022-11-05T18:02:00.836Z,101195.02
2022-11-05T18:04:30.038Z,101196.86
2022-11-05T18:06:58.630Z,101200.03
2022-11-05T18:09:27.501Z,101199.81
2022-11-05T18:11:56.084Z,101206.56
2022-11-05T18:14:24.708Z,101207.69
2022-11-05T18:16:54.777Z,101212.90
2022-11-05T18:19:23.248Z,101218.86
2022-11-05T18:21:51.959Z,101225.11
2022-11-05T18:24:21.259Z,101228.13
2022-11-05T18:26:50.417Z,101231.80
2022-11-05T18:29:18.904Z,101236.77
2022-11-05T18:34:37.641Z,101238.98
2022-11-05T18:37:12.560Z,101245.17
2022-11-05T18:39:46.029Z,101250.33
2022-11-05T18:42:22.292Z,101247.31
2022-11-05T18:44:58.613Z,101246.92
2022-11-05T18:47:27.240Z,101250.45
2022-11-05T18:49:55.749Z,101256.49
2022-11-05T18:52:25.917Z,101255.65
2022-11-05T18:54:57.178Z,101252.95
2022-11-05T18:57:46.351Z,101256.48
2022-11-05T19:00:16.554Z,101250.39
2022-11-05T19:02:45.125Z,101260.34
2022-11-05T19:05:32.948Z,101259.92
2022-11-05T19:08:12.018Z,101259.39
2022-11-05T19:10:41.473Z,101257.66
2022-11-05T19:13:32.986Z,101261.21
2022-11-05T19:16:23.329Z,101267.02
2022-11-05T19:19:13.024Z,101269.21
2022-11-05T19:21:41.486Z,101267.15
2022-11-05T19:24:10.528Z,101267.30
2022-11-05T19:26:46.053Z,101274.33
2022-11-05T19:29:16.266Z,101269.96
2022-11-05T19:31:44.902Z,101272.89
2022-11-05T19:34:14.163Z,101277.16
2022-11-05T19:36:43.131Z,101272.08
2022-11-05T19:39:14.029Z,101277.34
2022-11-05T19:41:42.810Z,101278.05
2022-11-05T19:44:14.740Z,101281.09
2022-11-05T19:46:43.704Z,101281.46
2022-11-05T19:49:12.452Z,101278.68
2022-11-05T19:51:40.951Z,101278.89
2022-11-05T19:54:10.409Z,101279.24
2022-11-05T19:56:38.936Z,101281.84
2022-11-05T19:59:07.419Z,101285.33
2022-11-05T20:01:36.380Z,101280.06
2022-11-05T20:04:05.971Z,101286.08
2022-11-05T20:06:38.041Z,101287.77
2022-11-05T20:09:24.741Z,101288.65
2022-11-05T20:11:55.607Z,101296.83
2022-11-05T20:14:25.196Z,101297.69
2022-11-05T20:16:54.216Z,101304.30
2022-11-05T20:19:23.627Z,101305.63
2022-11-05T20:21:52.382Z,101301.00
2022-11-05T20:24:25.356Z,101303.24
2022-11-05T20:26:55.548Z,101306.72
2022-11-05T20:29:29.100Z,101310.05
2022-11-05T20:32:05.433Z,101311.13
2022-11-05T20:34:34.683Z,101307.93
2022-11-05T20:37:03.626Z,101319.52
2022-11-05T20:39:32.429Z,101326.62
2022-11-05T20:42:01.173Z,101327.79
2022-11-05T20:44:29.862Z,101330.18
2022-11-05T20:46:58.543Z,101332.94
2022-11-05T20:49:27.262Z,101335.98
2022-11-05T20:51:55.818Z,101333.20
2022-11-05T20:54:24.984Z,101334.80
2022-11-05T20:57:00.520Z,101332.98
2022-11-05T20:59:29.016Z,101335.18
2022-11-05T21:01:59.740Z,101330.87
2022-11-05T21:04:28.711Z,101333.12
2022-11-05T21:06:57.087Z,101338.60
2022-11-05T21:09:25.634Z,101341.52
2022-11-05T21:12:12.377Z,101345.55
2022-11-05T21:14:43.940Z,101345.91
2022-11-05T21:17:13.128Z,101344.91
2022-11-05T21:19:41.580Z,101348.18
2022-11-05T21:22:15.293Z,101352.52
2022-11-05T21:24:43.847Z,101356.83
2022-11-05T21:27:12.359Z,101353.83
2022-11-05T21:29:40.831Z,101357.02
2022-11-05T21:32:12.486Z,101358.52
2022-11-05T21:34:41.190Z,101362.15
2022-11-05T21:37:09.669Z,101363.70
2022-11-05T21:39:38.162Z,101362.06
2022-11-05T21:42:06.688Z,101365.08
2022-11-05T21:44:35.217Z,101359.63
2022-11-05T21:47:03.892Z,101362.85
2022-11-05T21:49:34.964Z,101362.39
2022-11-05T21:52:21.839Z,101361.69
2022-11-05T21:55:09.865Z,101364.88
2022-11-05T21:57:57.173Z,101371.65
2022-11-05T22:00:25.977Z,101374.14
2022-11-05T22:02:54.690Z,101373.48
2022-11-05T22:05:23.408Z,101374.66
2022-11-05T22:07:54.036Z,101373.35
2022-11-05T22:10:22.817Z,101378.23
2022-11-05T22:12:56.356Z,101379.42
2022-11-05T22:15:24.813Z,101378.52
2022-11-05T22:17:58.184Z,101379.35
2022-11-05T22:20:26.732Z,101380.08
2022-11-05T22:22:55.219Z,101382.10
2022-11-05T22:25:23.802Z,101382.96
2022-11-05T22:27:55.290Z,101386.98
2022-11-05T22:30:23.730Z,101386.63
2022-11-05T22:33:00.677Z,101390.30
2022-11-05T22:35:43.893Z,101383.28
2022-11-05T22:38:13.256Z,101389.67
2022-11-05T22:40:42.959Z,101390.14
2022-11-05T22:43:13.588Z,101392.25
2022-11-05T22:45:43.240Z,101389.10
2022-11-05T22:48:11.972Z,101391.85
2022-11-05T22:50:40.743Z,101391.04
2022-11-05T22:53:09.244Z,101389.38
2022-11-05T22:55:39.919Z,101389.77
2022-11-05T22:58:08.387Z,101392.33
2022-11-05T23:00:38.121Z,101392.59
2022-11-05T23:03:06.772Z,101396.00
2022-11-05T23:05:35.619Z,101394.83
2022-11-05T23:08:23.207Z,101398.39
2022-11-05T23:11:10.369Z,101397.75
2022-11-05T23:13:38.903Z,101400.28
2022-11-05T23:16:26.974Z,101398.13
2022-11-05T23:19:16.465Z,101398.01
2022-11-05T23:22:03.104Z,101401.78
2022-11-05T23:24:31.986Z,101401.56
2022-11-05T23:27:03.373Z,101396.33
2022-11-05T23:29:32.042Z,101400.16
2022-11-05T23:32:18.598Z,101397.35
2022-11-05T23:38:12.354Z,101406.19
2022-11-05T23:40:55.650Z,101402.05
2022-11-05T23:43:42.308Z,101400.52
2022-11-05T23:46:29.232Z,101403.72
2022-11-05T23:49:02.216Z,101403.92
2022-11-05T23:51:30.894Z,101399.84
2022-11-05T23:53:59.300Z,101411.08
2022-11-05T23:56:30.696Z,101411.02
2022-11-05T23:58:59.140Z,101412.17
